createdAt,value
2019-04-16T00:00:35.828Z,4.10
2019-04-16T00:03:04.948Z,4.10
2019-04-16T00:05:46.342Z,4.00
2019-04-16T00:08:28.106Z,3.90
2019-04-16T00:11:05.089Z,3.90
2019-04-16T00:13:43.232Z,3.80
2019-04-16T00:16:13.018Z,3.80
2019-04-16T00:18:56.381Z,3.70
2019-04-16T00:21:32.318Z,3.70
2019-04-16T00:24:20.450Z,3.70
2019-04-16T00:26:58.050Z,3.70
2019-04-16T00:29:25.047Z,3.70
2019-04-16T00:32:07.841Z,3.70
2019-04-16T00:34:35.310Z,3.70
2019-04-16T00:37:04.230Z,3.70
2019-04-16T00:39:33.017Z,3.70
2019-04-16T00:42:01.901Z,3.60
2019-04-16T00:44:30.972Z,3.60
2019-04-16T00:46:59.798Z,3.60
2019-04-16T00:49:28.626Z,3.60
2019-04-16T00:51:57.510Z,3.60
2019-04-16T00:54:26.481Z,3.60
2019-04-16T00:56:55.698Z,3.60
2019-04-16T00:59:24.929Z,3.60
2019-04-16T01:01:54.202Z,3.60
2019-04-16T01:04:23.424Z,3.60
2019-04-16T01:06:52.485Z,3.60
2019-04-16T01:09:21.275Z,3.60
2019-04-16T01:11:50.476Z,3.50
2019-04-16T01:14:19.380Z,3.50
2019-04-16T01:16:48.532Z,3.40
2019-04-16T01:19:17.458Z,3.40
2019-04-16T01:21:46.256Z,3.30
2019-04-16T01:24:17.579Z,3.20
2019-04-16T01:26:45.725Z,3.10
2019-04-16T01:29:16.468Z,3.10
2019-04-16T01:32:00.478Z,3.00
2019-04-16T01:34:57.275Z,3.00
2019-04-16T01:37:56.509Z,2.90
2019-04-16T01:40:27.480Z,2.80
2019-04-16T01:42:56.674Z,2.80
2019-04-16T01:45:29.582Z,2.70
2019-04-16T01:47:56.146Z,2.70
2019-04-16T01:50:25.025Z,2.70
2019-04-16T01:52:54.075Z,2.60
2019-04-16T01:55:25.501Z,2.70
2019-04-16T01:57:53.984Z,2.60
2019-04-16T02:00:22.767Z,2.60
2019-04-16T02:02:51.805Z,2.50
2019-04-16T02:05:23.209Z,2.50
2019-04-16T02:07:51.597Z,2.40
2019-04-16T02:10:20.522Z,2.40
2019-04-16T02:12:49.432Z,2.30
2019-04-16T02:15:37.535Z,2.30
2019-04-16T02:18:06.900Z,2.30
2019-04-16T02:20:38.592Z,2.30
2019-04-16T02:23:06.692Z,2.30
2019-04-16T02:25:35.473Z,2.20
2019-04-16T02:28:04.328Z,2.20
2019-04-16T02:30:37.599Z,2.20
2019-04-16T02:33:04.656Z,2.20
2019-04-16T02:35:33.842Z,2.20
2019-04-16T02:38:02.771Z,2.20
2019-04-16T02:40:31.775Z,2.20
2019-04-16T02:43:06.569Z,2.20
2019-04-16T02:45:31.106Z,2.20
2019-04-16T02:48:00.285Z,2.10
2019-04-16T02:50:42.982Z,2.10
2019-04-16T02:53:29.796Z,2.00
2019-04-16T02:56:19.160Z,2.00
2019-04-16T02:58:52.593Z,2.00
2019-04-16T03:01:41.573Z,2.00
2019-04-16T03:04:14.221Z,2.00
2019-04-16T03:06:43.191Z,2.00
2019-04-16T03:09:12.221Z,1.90
2019-04-16T03:11:41.136Z,1.90
2019-04-16T03:14:09.996Z,1.80
2019-04-16T03:17:00.947Z,1.80
2019-04-16T03:19:33.526Z,1.80
2019-04-16T03:22:03.311Z,1.80
2019-04-16T03:24:32.889Z,1.80
2019-04-16T03:27:04.493Z,1.70
2019-04-16T03:29:32.599Z,1.70
2019-04-16T03:32:01.367Z,1.70
2019-04-16T03:34:30.462Z,1.60
2019-04-16T03:37:01.962Z,1.60
2019-04-16T03:39:30.160Z,1.60
2019-04-16T03:41:58.965Z,1.60
2019-04-16T03:44:27.733Z,1.60
2019-04-16T03:46:56.777Z,1.60
2019-04-16T03:49:27.821Z,1.50
2019-04-16T03:51:56.149Z,1.50
2019-04-16T03:54:24.956Z,1.40
2019-04-16T03:56:53.742Z,1.40
2019-04-16T03:59:22.565Z,1.40
2019-04-16T04:01:51.352Z,1.40
2019-04-16T04:04:20.205Z,1.40
2019-04-16T04:06:48.984Z,1.40
2019-04-16T04:09:18.978Z,1.40
2019-04-16T04:11:48.305Z,1.30
2019-04-16T04:14:22.116Z,1.30
2019-04-16T04:16:47.732Z,1.30
2019-04-16T04:19:16.785Z,1.30
2019-04-16T04:21:45.627Z,1.30
2019-04-16T04:24:14.666Z,1.30
2019-04-16T04:26:45.440Z,1.30
2019-04-16T04:29:14.316Z,1.30
2019-04-16T04:31:43.105Z,1.20
2019-04-16T04:34:15.382Z,1.30
2019-04-16T04:36:45.643Z,1.30
2019-04-16T04:39:15.667Z,1.30
2019-04-16T04:41:44.685Z,1.30
2019-04-16T04:44:16.245Z,1.30
2019-04-16T04:46:46.151Z,1.30
2019-04-16T04:49:15.831Z,1.30
2019-04-16T04:51:44.686Z,1.30
2019-04-16T04:54:13.523Z,1.30
2019-04-16T04:56:43.427Z,1.40
2019-04-16T04:59:12.236Z,1.40
2019-04-16T05:01:41.951Z,1.50
2019-04-16T05:04:30.741Z,1.50
2019-04-16T05:07:04.920Z,1.60
2019-04-16T05:09:36.475Z,1.60
2019-04-16T05:12:07.731Z,1.70
2019-04-16T05:14:37.114Z,1.80
2019-04-16T05:17:06.544Z,1.80
2019-04-16T05:19:36.284Z,1.90
2019-04-16T05:22:05.422Z,1.90
2019-04-16T05:24:37.408Z,2.00
2019-04-16T05:27:05.477Z,2.10
2019-04-16T05:29:35.235Z,2.20
2019-04-16T05:32:04.085Z,2.30
2019-04-16T05:34:34.634Z,2.40
2019-04-16T05:37:03.525Z,2.50
2019-04-16T05:39:32.767Z,2.60
2019-04-16T05:42:02.109Z,2.80
2019-04-16T05:44:34.006Z,2.90
2019-04-16T05:47:01.408Z,3.00
2019-04-16T05:49:30.208Z,3.10
2019-04-16T05:52:02.950Z,3.20
2019-04-16T05:54:48.349Z,3.30
2019-04-16T05:57:25.705Z,3.50
2019-04-16T05:59:53.828Z,3.60
2019-04-16T06:02:28.541Z,3.70
2019-04-16T06:04:57.702Z,3.80
2019-04-16T06:07:26.810Z,3.90
2019-04-16T06:09:55.871Z,4.00
2019-04-16T06:12:26.758Z,4.10
2019-04-16T06:15:21.314Z,4.20
2019-04-16T06:18:07.279Z,4.40
2019-04-16T06:20:53.901Z,4.60
2019-04-16T06:23:48.511Z,4.80
2019-04-16T06:26:23.934Z,4.90
2019-04-16T06:29:00.149Z,5.00
2019-04-16T06:31:42.788Z,5.10
2019-04-16T06:34:45.876Z,5.20
2019-04-16T06:37:21.781Z,5.30
2019-04-16T06:40:10.834Z,5.50
2019-04-16T06:42:56.424Z,5.60
2019-04-16T06:45:42.845Z,5.70
2019-04-16T06:48:19.749Z,5.90
2019-04-16T06:50:59.279Z,6.10
2019-04-16T06:53:36.804Z,6.30
2019-04-16T06:56:24.824Z,6.40
2019-04-16T06:59:19.072Z,6.60
2019-04-16T07:02:07.656Z,6.80
2019-04-16T07:04:42.037Z,6.90
2019-04-16T07:07:22.243Z,7.10
2019-04-16T07:09:57.739Z,7.30
2019-04-16T07:12:29.261Z,7.60
2019-04-16T07:14:58.177Z,8.00
2019-04-16T07:17:32.904Z,8.40
2019-04-16T07:19:58.176Z,8.80
2019-04-16T07:22:27.413Z,9.30
2019-04-16T07:24:57.046Z,9.60
2019-04-16T07:27:34.068Z,9.90
2019-04-16T07:30:09.065Z,10.20
2019-04-16T07:33:00.585Z,10.40
2019-04-16T07:35:45.889Z,10.60
2019-04-16T07:38:28.131Z,11.00
2019-04-16T07:41:17.024Z,11.40
2019-04-16T07:44:04.698Z,11.80
2019-04-16T07:46:54.708Z,12.10
2019-04-16T07:49:37.689Z,12.40
2019-04-16T07:52:28.794Z,12.70
2019-04-16T07:55:31.769Z,12.90
2019-04-16T07:58:00.649Z,13.40
2019-04-16T08:00:29.548Z,13.80
2019-04-16T08:02:58.737Z,14.00
2019-04-16T08:05:28.268Z,14.30
2019-04-16T08:07:57.189Z,14.60
2019-04-16T08:10:26.083Z,14.90
2019-04-16T08:13:00.477Z,15.10
2019-04-16T08:15:30.006Z,15.30
2019-04-16T08:17:59.125Z,15.50
2019-04-16T08:20:28.494Z,15.80
2019-04-16T08:23:00.962Z,16.00
2019-04-16T08:25:33.905Z,16.30
2019-04-16T08:28:01.590Z,16.60
2019-04-16T08:30:34.595Z,16.90
2019-04-16T08:33:01.223Z,17.10
2019-04-16T08:35:30.263Z,17.40
2019-04-16T08:37:59.267Z,17.60
2019-04-16T08:40:28.797Z,17.70
2019-04-16T08:42:58.374Z,17.50
2019-04-16T08:45:28.238Z,17.60
2019-04-16T08:47:57.221Z,17.80
2019-04-16T08:50:27.005Z,18.00
2019-04-16T08:52:56.233Z,18.00
2019-04-16T08:55:25.020Z,18.10
2019-04-16T08:57:53.932Z,18.10
2019-04-16T09:00:22.952Z,18.10
2019-04-16T09:02:51.752Z,18.10
2019-04-16T09:05:20.868Z,18.20
2019-04-16T09:07:51.046Z,18.30
2019-04-16T09:10:23.764Z,18.40
2019-04-16T09:13:03.503Z,18.50
2019-04-16T09:15:27.347Z,18.70
2019-04-16T09:18:14.117Z,18.90
2019-04-16T09:20:43.968Z,19.10
2019-04-16T09:23:13.051Z,19.40
2019-04-16T09:26:15.190Z,19.60
2019-04-16T09:28:49.429Z,19.70
2019-04-16T09:31:54.996Z,19.90
2019-04-16T09:34:45.165Z,20.00
2019-04-16T09:37:29.594Z,20.20
2019-04-16T09:40:26.328Z,20.50
2019-04-16T09:42:55.422Z,20.70
2019-04-16T09:45:25.421Z,20.60
2019-04-16T09:47:54.589Z,20.80
2019-04-16T09:50:23.788Z,21.00
2019-04-16T09:52:55.352Z,21.10
2019-04-16T09:55:24.341Z,21.30
2019-04-16T09:57:55.235Z,21.40
2019-04-16T10:00:30.535Z,21.60
2019-04-16T10:05:35.245Z,22.20
2019-04-16T10:08:04.080Z,22.30
2019-04-16T10:10:32.900Z,22.40
2019-04-16T10:13:01.785Z,22.50
2019-04-16T10:15:31.297Z,22.70
2019-04-16T10:18:01.591Z,22.90
2019-04-16T10:20:30.916Z,23.10
2019-04-16T10:23:01.650Z,23.20
2019-04-16T10:25:33.728Z,23.50
2019-04-16T10:28:07.688Z,23.30
2019-04-16T10:30:44.418Z,23.20
2019-04-16T10:33:13.401Z,23.10
2019-04-16T10:35:42.605Z,23.30
2019-04-16T10:38:30.731Z,23.30
2019-04-16T10:41:05.743Z,23.50
2019-04-16T10:43:52.681Z,23.60
2019-04-16T10:46:34.422Z,23.70
2019-04-16T10:49:22.580Z,23.90
2019-04-16T10:52:22.912Z,24.20
2019-04-16T10:55:00.152Z,24.50
2019-04-16T10:57:48.126Z,24.60
2019-04-16T11:00:42.490Z,24.90
2019-04-16T11:03:22.733Z,25.10
2019-04-16T11:06:05.836Z,25.10
2019-04-16T11:08:34.938Z,25.10
2019-04-16T11:11:04.245Z,25.00
2019-04-16T11:13:40.285Z,25.00
2019-04-16T11:16:13.715Z,25.10
2019-04-16T11:18:42.808Z,25.40
2019-04-16T11:21:12.519Z,25.60
2019-04-16T11:23:41.463Z,25.70
2019-04-16T11:26:10.418Z,25.70
2019-04-16T11:28:39.314Z,25.80
2019-04-16T11:31:11.952Z,25.70
2019-04-16T11:33:40.905Z,25.50
2019-04-16T11:36:18.846Z,25.30
2019-04-16T11:38:40.188Z,25.30
2019-04-16T11:41:09.394Z,25.40
2019-04-16T11:43:38.555Z,25.40
2019-04-16T11:46:07.602Z,25.50
2019-04-16T11:48:37.626Z,25.40
2019-04-16T11:51:07.220Z,25.10
2019-04-16T11:53:36.105Z,24.90
2019-04-16T11:56:04.996Z,25.00
2019-04-16T11:58:40.536Z,25.00
2019-04-16T12:01:18.712Z,25.20
2019-04-16T12:04:10.942Z,25.50
2019-04-16T12:06:54.039Z,25.80
2019-04-16T12:09:36.502Z,26.00
2019-04-16T12:12:11.133Z,26.00
2019-04-16T12:15:08.217Z,26.10
2019-04-16T12:17:56.213Z,26.00
2019-04-16T12:20:42.980Z,26.30
2019-04-16T12:23:31.064Z,26.60
2019-04-16T12:29:26.735Z,25.30
2019-04-16T12:32:03.585Z,24.50
2019-04-16T12:34:36.616Z,23.90
2019-04-16T12:37:18.593Z,23.60
2019-04-16T12:40:05.691Z,23.10
2019-04-16T12:42:59.857Z,22.90
2019-04-16T12:45:35.688Z,22.90
2019-04-16T12:48:32.343Z,22.70
2019-04-16T12:51:12.180Z,22.60
2019-04-16T12:53:53.431Z,22.60
2019-04-16T12:56:41.158Z,22.50
2019-04-16T12:59:16.427Z,22.40
2019-04-16T13:01:53.263Z,22.30
2019-04-16T13:04:50.661Z,22.20
2019-04-16T13:07:25.576Z,22.40
2019-04-16T13:10:26.046Z,22.60
2019-04-16T13:13:21.341Z,22.60
2019-04-16T13:15:58.602Z,22.50
2019-04-16T13:19:01.622Z,22.50
2019-04-16T13:21:33.682Z,22.40
2019-04-16T13:24:09.125Z,22.00
2019-04-16T13:26:52.034Z,21.60
2019-04-16T13:29:29.199Z,21.40
2019-04-16T13:31:53.960Z,21.20
2019-04-16T13:34:23.612Z,21.00
2019-04-16T13:36:52.489Z,20.90
2019-04-16T13:39:26.660Z,20.60
2019-04-16T13:41:55.989Z,20.50
2019-04-16T13:44:27.378Z,20.30
2019-04-16T13:47:01.411Z,19.90
2019-04-16T13:49:40.665Z,19.60
2019-04-16T13:52:09.804Z,19.30
2019-04-16T13:54:51.351Z,19.00
2019-04-16T13:57:22.019Z,18.70
2019-04-16T13:59:54.950Z,18.50
2019-04-16T14:02:42.917Z,18.10
2019-04-16T14:05:12.329Z,17.80
2019-04-16T14:07:41.625Z,17.50
2019-04-16T14:10:11.609Z,17.20
2019-04-16T14:12:42.563Z,16.90
2019-04-16T14:15:12.166Z,16.60
2019-04-16T14:17:52.511Z,16.30
2019-04-16T14:20:13.626Z,16.20
2019-04-16T14:22:42.869Z,16.10
2019-04-16T14:25:12.136Z,16.10
2019-04-16T14:27:41.140Z,16.10
2019-04-16T14:30:18.544Z,16.10
2019-04-16T14:32:47.409Z,16.10
2019-04-16T14:35:32.905Z,16.10
2019-04-16T14:37:55.386Z,16.00
2019-04-16T14:40:25.875Z,15.90
2019-04-16T14:42:57.585Z,15.80
2019-04-16T14:45:53.578Z,15.70
2019-04-16T14:48:08.994Z,15.70
2019-04-16T14:50:37.857Z,15.60
2019-04-16T14:53:06.865Z,15.60
2019-04-16T14:55:58.751Z,15.50
2019-04-16T14:58:31.076Z,15.40
2019-04-16T15:01:07.910Z,15.20
2019-04-16T15:03:54.373Z,15.10
2019-04-16T15:06:41.381Z,15.00
2019-04-16T15:09:32.583Z,14.90
2019-04-16T15:12:22.851Z,14.80
2019-04-16T15:15:11.731Z,14.70
2019-04-16T15:17:46.751Z,14.50
2019-04-16T15:20:36.117Z,14.40
2019-04-16T15:23:18.523Z,14.30
2019-04-16T15:26:00.737Z,14.20
2019-04-16T15:28:36.117Z,14.10
2019-04-16T15:31:16.823Z,14.00
2019-04-16T15:33:49.320Z,13.90
2019-04-16T15:36:23.605Z,13.90
2019-04-16T15:39:17.593Z,13.90
2019-04-16T15:42:17.982Z,13.80
2019-04-16T15:44:57.652Z,13.80
2019-04-16T15:47:55.196Z,13.80
2019-04-16T15:50:36.786Z,13.70
2019-04-16T15:53:40.023Z,13.60
2019-04-16T15:56:18.604Z,13.50
2019-04-16T15:58:56.825Z,13.40
2019-04-16T16:01:35.418Z,13.20
2019-04-16T16:04:35.603Z,13.10
2019-04-16T16:07:08.773Z,13.00
2019-04-16T16:09:58.940Z,13.00
2019-04-16T16:12:28.629Z,13.00
2019-04-16T16:14:57.433Z,12.90
2019-04-16T16:17:26.336Z,12.90
2019-04-16T16:19:55.393Z,12.90
2019-04-16T16:22:24.304Z,12.80
2019-04-16T16:24:53.120Z,12.80
2019-04-16T16:27:22.331Z,12.80
2019-04-16T16:29:51.116Z,12.80
2019-04-16T16:32:20.183Z,12.80
2019-04-16T16:34:49.038Z,12.90
2019-04-16T16:37:18.193Z,12.80
2019-04-16T16:39:48.032Z,12.80
2019-04-16T16:42:16.866Z,12.70
2019-04-16T16:44:45.690Z,12.70
2019-04-16T16:47:27.872Z,12.70
2019-04-16T16:49:57.425Z,12.70
2019-04-16T16:52:36.988Z,12.70
2019-04-16T16:55:09.324Z,12.70
2019-04-16T16:57:43.416Z,12.70
2019-04-16T17:00:30.472Z,12.70
2019-04-16T17:03:10.043Z,12.70
2019-04-16T17:05:38.656Z,12.70
2019-04-16T17:08:07.929Z,12.70
2019-04-16T17:10:36.853Z,12.70
2019-04-16T17:13:05.737Z,12.60
2019-04-16T17:15:34.866Z,12.60
2019-04-16T17:18:03.781Z,12.60
2019-04-16T17:20:32.738Z,12.70
2019-04-16T17:23:02.032Z,12.70
2019-04-16T17:25:36.713Z,12.70
2019-04-16T17:28:04.060Z,12.70
2019-04-16T17:30:33.206Z,12.70
2019-04-16T17:33:02.171Z,12.70
2019-04-16T17:35:31.390Z,12.60
2019-04-16T17:38:02.727Z,12.60
2019-04-16T17:40:43.924Z,12.60
2019-04-16T17:43:17.953Z,12.50
2019-04-16T17:45:55.742Z,12.50
2019-04-16T17:48:53.200Z,12.40
2019-04-16T17:51:40.649Z,12.40
2019-04-16T17:54:14.518Z,12.40
2019-04-16T17:57:01.456Z,12.30
2019-04-16T17:59:53.558Z,12.30
2019-04-16T18:02:56.946Z,12.20
2019-04-16T18:05:33.356Z,12.10
2019-04-16T18:08:20.020Z,12.10
2019-04-16T18:10:56.324Z,12.00
2019-04-16T18:13:36.589Z,11.90
2019-04-16T18:16:36.989Z,12.00
2019-04-16T18:19:14.077Z,11.90
2019-04-16T18:22:06.107Z,11.90
2019-04-16T18:24:59.941Z,11.90
2019-04-16T18:27:39.389Z,11.80
2019-04-16T18:30:33.669Z,11.70
2019-04-16T18:33:14.901Z,11.60
2019-04-16T18:35:50.205Z,11.50
2019-04-16T18:38:42.526Z,11.50
2019-04-16T18:41:17.206Z,11.40
2019-04-16T18:44:11.293Z,11.40
2019-04-16T18:46:47.853Z,11.40
2019-04-16T18:49:18.765Z,11.40
2019-04-16T18:51:47.844Z,11.40
2019-04-16T18:54:17.721Z,11.50
2019-04-16T18:56:46.630Z,11.50
2019-04-16T18:59:15.683Z,11.50
2019-04-16T19:01:46.756Z,11.50
2019-04-16T19:04:15.641Z,11.40
2019-04-16T19:06:47.633Z,11.40
2019-04-16T19:09:20.573Z,11.40
2019-04-16T19:11:47.709Z,11.40
2019-04-16T19:14:16.512Z,11.40
2019-04-16T19:16:48.188Z,11.30
2019-04-16T19:19:17.039Z,11.30
2019-04-16T19:21:51.251Z,11.40
2019-04-16T19:24:17.151Z,11.50
2019-04-16T19:26:46.136Z,11.60
2019-04-16T19:29:15.296Z,11.60
2019-04-16T19:31:44.313Z,11.60
2019-04-16T19:34:13.172Z,11.50
2019-04-16T19:36:42.986Z,11.50
2019-04-16T19:39:15.215Z,11.50
2019-04-16T19:41:43.400Z,11.40
2019-04-16T19:44:12.358Z,11.40
2019-04-16T19:46:45.422Z,11.30
2019-04-16T19:49:13.021Z,11.40
2019-04-16T19:51:42.064Z,11.40
2019-04-16T19:54:11.011Z,11.30
2019-04-16T19:56:39.893Z,11.20
2019-04-16T19:59:08.898Z,11.20
2019-04-16T20:01:37.729Z,11.20
2019-04-16T20:04:10.766Z,11.10
2019-04-16T20:06:37.285Z,11.00
2019-04-16T20:09:07.397Z,11.00
2019-04-16T20:11:36.294Z,11.00
2019-04-16T20:14:05.187Z,10.90
2019-04-16T20:16:34.167Z,10.80
2019-04-16T20:19:03.514Z,10.70
2019-04-16T20:21:32.381Z,10.50
2019-04-16T20:24:01.309Z,10.50
2019-04-16T20:26:32.448Z,10.40
2019-04-16T20:29:00.807Z,10.40
2019-04-16T20:31:29.706Z,10.30
2019-04-16T20:33:58.862Z,10.30
2019-04-16T20:36:27.670Z,10.20
2019-04-16T20:38:57.069Z,10.20
2019-04-16T20:41:26.233Z,10.10
2019-04-16T20:43:55.378Z,10.10
2019-04-16T20:46:24.155Z,10.00
2019-04-16T20:49:06.534Z,10.00
2019-04-16T20:51:26.279Z,10.00
2019-04-16T20:53:54.020Z,10.00
2019-04-16T20:56:23.285Z,10.00
2019-04-16T20:58:52.382Z,9.90
2019-04-16T21:01:34.015Z,9.80
2019-04-16T21:04:04.863Z,9.80
2019-04-16T21:06:28.601Z,9.80
2019-04-16T21:08:58.288Z,9.70
2019-04-16T21:11:27.373Z,9.70
2019-04-16T21:13:57.129Z,9.80
2019-04-16T21:16:26.144Z,9.80
2019-04-16T21:18:55.472Z,9.80
2019-04-16T21:21:24.928Z,9.90
2019-04-16T21:23:53.733Z,9.90
2019-04-16T21:26:22.610Z,9.90
2019-04-16T21:29:16.713Z,9.80
2019-04-16T21:31:49.487Z,9.80
2019-04-16T21:34:25.059Z,9.80
2019-04-16T21:37:10.554Z,9.70
2019-04-16T21:39:51.147Z,9.60
2019-04-16T21:42:19.110Z,9.60
2019-04-16T21:44:47.928Z,9.60
2019-04-16T21:47:16.693Z,9.50
2019-04-16T21:49:45.993Z,9.50
2019-04-16T21:52:14.943Z,9.50
2019-04-16T21:54:43.817Z,9.50
2019-04-16T21:57:13.366Z,9.50
2019-04-16T21:59:43.232Z,9.40
2019-04-16T22:02:38.933Z,9.40
2019-04-16T22:05:10.082Z,9.40
2019-04-16T22:07:39.078Z,9.40
2019-04-16T22:10:08.350Z,9.30
2019-04-16T22:12:37.089Z,9.30
2019-04-16T22:15:06.280Z,9.30
2019-04-16T22:17:36.528Z,9.20
2019-04-16T22:20:06.959Z,9.20
2019-04-16T22:22:36.007Z,9.20
2019-04-16T22:25:05.221Z,9.20
2019-04-16T22:27:36.706Z,9.20
2019-04-16T22:30:05.445Z,9.20
2019-04-16T22:32:34.412Z,9.20
2019-04-16T22:35:03.392Z,9.20
2019-04-16T22:37:32.197Z,9.20
2019-04-16T22:40:22.537Z,9.30
2019-04-16T22:43:08.563Z,9.30
2019-04-16T22:45:41.810Z,9.30
2019-04-16T22:48:10.885Z,9.30
2019-04-16T22:50:40.022Z,9.30
2019-04-16T22:53:09.077Z,9.30
2019-04-16T22:55:42.367Z,9.30
2019-04-16T22:58:23.337Z,9.30
2019-04-16T23:00:53.181Z,9.30
2019-04-16T23:03:22.076Z,9.30
2019-04-16T23:05:50.853Z,9.30
2019-04-16T23:08:19.712Z,9.30
2019-04-16T23:10:50.638Z,9.30
2019-04-16T23:13:18.961Z,9.40
2019-04-16T23:15:48.152Z,9.40
2019-04-16T23:18:18.189Z,9.40
2019-04-16T23:20:47.557Z,9.40
2019-04-16T23:23:19.104Z,9.40
2019-04-16T23:25:46.857Z,9.50
2019-04-16T23:28:15.942Z,9.50
2019-04-16T23:30:44.833Z,9.50
2019-04-16T23:33:15.595Z,9.50
2019-04-16T23:35:44.722Z,9.50
2019-04-16T23:38:13.504Z,9.50
2019-04-16T23:40:43.848Z,9.50
2019-04-16T23:43:21.918Z,9.50
2019-04-16T23:46:06.525Z,9.50
2019-04-16T23:49:04.021Z,9.50
2019-04-16T23:51:37.376Z,9.40
2019-04-16T23:54:22.526Z,9.50
2019-04-16T23:56:58.593Z,9.40
2019-04-16T23:59:45.184Z,9.40
